createdAt,value
2018-06-22T00:00:35.648Z,90.70
2018-06-22T00:03:08.691Z,90.70
2018-06-22T00:05:41.669Z,90.90
2018-06-22T00:08:14.717Z,90.90
2018-06-22T00:10:47.733Z,91.00
2018-06-22T00:13:20.728Z,90.90
2018-06-22T00:15:53.716Z,90.80
2018-06-22T00:18:26.770Z,90.90
2018-06-22T00:20:59.932Z,91.10
2018-06-22T00:23:32.995Z,91.10
2018-06-22T00:26:06.099Z,90.90
2018-06-22T00:28:39.140Z,91.30
2018-06-22T00:31:12.191Z,90.90
2018-06-22T00:33:45.331Z,91.20
2018-06-22T00:36:18.343Z,91.40
2018-06-22T00:38:51.395Z,91.00
2018-06-22T00:41:24.379Z,91.40
2018-06-22T00:43:57.415Z,91.60
2018-06-22T00:46:30.560Z,91.60
2018-06-22T00:49:03.612Z,91.20
2018-06-22T00:51:36.606Z,91.60
2018-06-22T00:54:13.381Z,91.10
2018-06-22T00:56:46.916Z,91.60
2018-06-22T00:59:19.960Z,91.60
2018-06-22T01:01:52.989Z,91.60
2018-06-22T01:04:26.044Z,91.90
2018-06-22T01:06:59.070Z,92.40
2018-06-22T01:09:32.133Z,92.50
2018-06-22T01:12:05.156Z,92.60
2018-06-22T01:14:38.201Z,92.60
2018-06-22T01:17:11.234Z,92.80
2018-06-22T01:19:44.259Z,93.00
2018-06-22T01:22:17.320Z,93.10
2018-06-22T01:24:50.308Z,93.00
2018-06-22T01:27:23.343Z,93.20
2018-06-22T01:32:29.266Z,93.20
2018-06-22T01:35:02.271Z,92.90
2018-06-22T01:37:35.280Z,93.10
2018-06-22T01:40:08.292Z,93.20
2018-06-22T01:42:41.390Z,93.70
2018-06-22T01:45:14.415Z,93.50
2018-06-22T01:47:47.432Z,93.50
2018-06-22T01:50:20.430Z,93.60
2018-06-22T01:52:53.489Z,93.70
2018-06-22T01:55:26.507Z,93.80
2018-06-22T01:57:59.514Z,93.20
2018-06-22T02:00:32.510Z,93.80
2018-06-22T02:03:05.514Z,93.70
2018-06-22T02:05:38.546Z,93.80
2018-06-22T02:08:11.535Z,94.30
2018-06-22T02:10:45.043Z,94.00
2018-06-22T02:13:18.046Z,93.90
2018-06-22T02:15:51.096Z,94.30
2018-06-22T02:21:14.860Z,94.60
2018-06-22T02:23:47.903Z,94.60
2018-06-22T02:26:20.914Z,94.50
2018-06-22T02:28:53.943Z,94.60
2018-06-22T02:31:26.959Z,94.50
2018-06-22T02:33:59.972Z,94.50
2018-06-22T02:36:32.967Z,94.50
2018-06-22T02:39:09.670Z,94.60
2018-06-22T02:41:43.076Z,94.80
2018-06-22T02:44:16.103Z,94.70
2018-06-22T02:46:49.183Z,94.80
2018-06-22T02:49:22.199Z,94.90
2018-06-22T02:54:28.025Z,94.80
2018-06-22T02:57:01.053Z,94.50
2018-06-22T02:59:34.043Z,94.80
2018-06-22T03:02:07.059Z,94.80
2018-06-22T03:04:40.046Z,94.70
2018-06-22T03:07:13.083Z,94.80
2018-06-22T03:09:46.080Z,94.80
2018-06-22T03:12:19.077Z,94.70
2018-06-22T03:14:52.088Z,94.70
2018-06-22T03:17:25.110Z,94.50
2018-06-22T03:19:58.594Z,94.40
2018-06-22T03:22:31.630Z,94.50
2018-06-22T03:25:04.927Z,94.70
2018-06-22T03:27:37.947Z,94.10
2018-06-22T03:30:16.590Z,93.80
2018-06-22T03:32:49.633Z,93.70
2018-06-22T03:35:22.635Z,93.70
2018-06-22T03:37:55.651Z,93.90
2018-06-22T03:40:28.668Z,93.80
2018-06-22T03:43:01.696Z,93.60
2018-06-22T03:45:34.731Z,93.70
2018-06-22T03:48:07.738Z,93.70
2018-06-22T03:50:40.750Z,93.50
2018-06-22T03:53:13.790Z,93.40
2018-06-22T03:55:46.834Z,93.40
2018-06-22T03:58:19.951Z,93.10
2018-06-22T04:00:52.975Z,93.20
2018-06-22T04:03:26.035Z,92.90
2018-06-22T04:05:59.056Z,93.20
2018-06-22T04:08:32.096Z,92.90
2018-06-22T04:11:05.135Z,92.80
2018-06-22T04:13:38.155Z,92.90
2018-06-22T04:16:11.204Z,92.40
2018-06-22T04:18:44.211Z,92.50
2018-06-22T04:21:17.234Z,92.20
2018-06-22T04:23:50.242Z,92.40
2018-06-22T04:26:23.278Z,92.30
2018-06-22T04:28:56.304Z,92.20
2018-06-22T04:31:29.344Z,92.20
2018-06-22T04:34:02.371Z,92.00
2018-06-22T04:36:35.376Z,92.20
2018-06-22T04:39:10.107Z,92.00
2018-06-22T04:41:43.101Z,92.20
2018-06-22T04:44:16.136Z,91.90
2018-06-22T04:46:49.143Z,92.10
2018-06-22T04:49:22.153Z,91.60
2018-06-22T04:51:55.170Z,91.10
2018-06-22T04:54:28.178Z,90.90
2018-06-22T04:57:01.248Z,90.90
2018-06-22T04:59:34.292Z,91.00
2018-06-22T05:02:07.310Z,90.90
2018-06-22T05:04:40.391Z,91.00
2018-06-22T05:07:13.402Z,91.10
2018-06-22T05:09:46.914Z,91.10
2018-06-22T05:12:19.946Z,91.10
2018-06-22T05:14:52.938Z,91.10
2018-06-22T05:17:25.940Z,90.90
2018-06-22T05:19:58.991Z,91.20
2018-06-22T05:22:32.036Z,91.00
2018-06-22T05:25:05.064Z,90.90
2018-06-22T05:27:38.578Z,90.70
2018-06-22T05:30:11.671Z,90.90
2018-06-22T05:32:44.659Z,90.50
2018-06-22T05:35:17.681Z,90.40
2018-06-22T05:37:50.713Z,90.60
2018-06-22T05:40:23.738Z,90.90
2018-06-22T05:42:56.733Z,90.30
2018-06-22T05:45:29.912Z,90.00
2018-06-22T05:48:02.990Z,90.20
2018-06-22T05:50:36.018Z,90.30
2018-06-22T05:53:09.038Z,90.10
2018-06-22T05:55:42.072Z,90.40
2018-06-22T05:58:15.091Z,90.60
2018-06-22T06:00:48.117Z,90.40
2018-06-22T06:03:21.129Z,90.50
2018-06-22T06:05:54.153Z,90.10
2018-06-22T06:08:27.168Z,90.20
2018-06-22T06:11:00.193Z,90.00
2018-06-22T06:13:33.198Z,89.60
2018-06-22T06:16:06.682Z,89.40
2018-06-22T06:18:39.708Z,90.30
2018-06-22T06:21:12.706Z,89.50
2018-06-22T06:23:45.702Z,88.40
2018-06-22T06:26:18.723Z,88.70
2018-06-22T06:28:51.797Z,89.20
2018-06-22T06:31:24.835Z,89.30
2018-06-22T06:33:57.840Z,87.90
2018-06-22T06:36:31.215Z,87.40
2018-06-22T06:39:06.253Z,88.40
2018-06-22T06:41:39.289Z,88.50
2018-06-22T06:44:12.836Z,87.80
2018-06-22T06:46:45.863Z,87.30
2018-06-22T06:51:51.674Z,86.00
2018-06-22T06:54:24.656Z,87.30
2018-06-22T06:56:57.652Z,86.10
2018-06-22T06:59:30.638Z,85.50
2018-06-22T07:02:03.631Z,83.60
2018-06-22T07:04:36.616Z,81.20
2018-06-22T07:07:09.671Z,83.00
2018-06-22T07:09:42.691Z,82.30
2018-06-22T07:12:15.722Z,83.40
2018-06-22T07:14:48.739Z,83.20
2018-06-22T07:17:22.176Z,85.40
2018-06-22T07:19:55.179Z,83.40
2018-06-22T07:22:28.211Z,83.00
2018-06-22T07:25:01.264Z,82.50
2018-06-22T07:27:34.264Z,82.40
2018-06-22T07:30:07.287Z,83.80
2018-06-22T07:32:40.348Z,83.80
2018-06-22T07:35:13.348Z,84.70
2018-06-22T07:37:46.383Z,84.40
2018-06-22T07:40:19.804Z,84.20
2018-06-22T07:42:52.849Z,85.50
2018-06-22T07:45:25.883Z,84.40
2018-06-22T07:47:58.917Z,84.60
2018-06-22T07:53:06.919Z,84.60
2018-06-22T07:55:39.946Z,83.80
2018-06-22T07:58:12.985Z,85.20
2018-06-22T08:00:45.984Z,83.90
2018-06-22T08:03:19.007Z,83.00
2018-06-22T08:05:52.031Z,84.00
2018-06-22T08:08:25.070Z,82.40
2018-06-22T08:10:58.067Z,82.30
2018-06-22T08:13:31.079Z,80.90
2018-06-22T08:16:04.203Z,82.20
2018-06-22T08:18:37.226Z,82.30
2018-06-22T08:23:43.092Z,80.20
2018-06-22T08:26:16.079Z,82.10
2018-06-22T08:28:49.143Z,81.60
2018-06-22T08:31:22.182Z,81.30
2018-06-22T08:33:55.271Z,81.20
2018-06-22T08:36:28.308Z,81.50
2018-06-22T08:39:01.352Z,79.00
2018-06-22T08:41:34.426Z,81.00
2018-06-22T08:44:07.428Z,79.90
2018-06-22T08:46:40.549Z,77.60
2018-06-22T08:49:13.594Z,77.20
2018-06-22T08:51:46.606Z,76.20
2018-06-22T08:54:19.627Z,75.70
2018-06-22T08:56:52.690Z,77.80
2018-06-22T08:59:25.712Z,77.80
2018-06-22T09:01:58.731Z,77.40
2018-06-22T09:04:31.768Z,74.80
2018-06-22T09:07:04.794Z,76.90
2018-06-22T09:12:10.620Z,75.20
2018-06-22T09:14:43.656Z,71.30
2018-06-22T09:17:16.984Z,69.70
2018-06-22T09:19:50.027Z,75.20
2018-06-22T09:22:23.076Z,69.80
2018-06-22T09:27:28.950Z,70.70
2018-06-22T09:30:02.023Z,71.70
2018-06-22T09:32:37.645Z,70.60
2018-06-22T09:35:10.635Z,70.10
2018-06-22T09:37:43.633Z,71.20
2018-06-22T09:40:16.647Z,73.80
2018-06-22T09:42:49.663Z,69.70
2018-06-22T09:45:22.751Z,72.50
2018-06-22T09:47:55.804Z,70.50
2018-06-22T09:50:28.810Z,69.80
2018-06-22T09:53:01.884Z,71.00
2018-06-22T09:55:34.850Z,69.20
2018-06-22T09:58:07.853Z,70.70
2018-06-22T10:00:45.167Z,70.70
2018-06-22T10:03:18.831Z,71.50
2018-06-22T10:05:51.853Z,72.70
2018-06-22T10:08:24.896Z,72.10
2018-06-22T10:10:57.976Z,73.10
2018-06-22T10:13:30.975Z,73.00
2018-06-22T10:16:04.016Z,73.60
2018-06-22T10:18:37.036Z,72.90
2018-06-22T10:21:10.074Z,73.80
2018-06-22T10:23:43.110Z,70.80
2018-06-22T10:26:16.157Z,72.20
2018-06-22T10:28:49.155Z,70.90
2018-06-22T10:31:22.226Z,71.10
2018-06-22T10:33:55.483Z,69.30
2018-06-22T10:36:28.511Z,71.30
2018-06-22T10:39:01.546Z,71.60
2018-06-22T10:41:34.591Z,72.20
2018-06-22T10:44:08.162Z,72.20
2018-06-22T10:46:41.355Z,72.50
2018-06-22T10:49:14.366Z,70.60
2018-06-22T10:51:47.403Z,71.90
2018-06-22T10:54:20.419Z,70.90
2018-06-22T10:56:53.507Z,71.80
2018-06-22T10:59:26.543Z,71.70
2018-06-22T11:01:59.563Z,71.50
2018-06-22T11:04:32.586Z,70.90
2018-06-22T11:07:05.623Z,71.30
2018-06-22T11:09:38.654Z,67.40
2018-06-22T11:12:11.719Z,68.10
2018-06-22T11:14:44.787Z,67.40
2018-06-22T11:17:18.743Z,69.20
2018-06-22T11:19:51.821Z,66.70
2018-06-22T11:22:24.948Z,68.20
2018-06-22T11:24:58.010Z,62.50
2018-06-22T11:27:31.103Z,63.20
2018-06-22T11:30:04.645Z,66.70
2018-06-22T11:32:37.727Z,64.30
2018-06-22T11:35:10.780Z,64.10
2018-06-22T11:37:43.886Z,64.00
2018-06-22T11:40:16.925Z,64.60
2018-06-22T11:42:49.948Z,60.40
2018-06-22T11:45:22.975Z,60.90
2018-06-22T11:47:55.998Z,61.50
2018-06-22T11:50:29.021Z,59.40
2018-06-22T11:53:02.103Z,58.90
2018-06-22T11:55:35.115Z,57.20
2018-06-22T11:58:08.143Z,59.40
2018-06-22T12:00:41.172Z,55.80
2018-06-22T12:03:14.210Z,58.00
2018-06-22T12:05:47.265Z,57.80
2018-06-22T12:08:20.318Z,54.50
2018-06-22T12:10:53.324Z,55.70
2018-06-22T12:13:26.367Z,54.40
2018-06-22T12:15:59.419Z,56.90
2018-06-22T12:18:32.444Z,56.50
2018-06-22T12:21:05.600Z,58.40
2018-06-22T12:23:38.682Z,57.20
2018-06-22T12:26:11.687Z,56.60
2018-06-22T12:28:44.728Z,55.70
2018-06-22T12:31:17.755Z,54.80
2018-06-22T12:33:50.806Z,56.90
2018-06-22T12:36:23.827Z,53.30
2018-06-22T12:38:56.852Z,53.80
2018-06-22T12:41:29.899Z,50.70
2018-06-22T12:44:02.961Z,52.70
2018-06-22T12:46:36.262Z,52.10
2018-06-22T12:49:09.447Z,53.90
2018-06-22T12:51:42.479Z,51.70
2018-06-22T12:54:15.506Z,50.30
2018-06-22T12:56:48.540Z,49.70
2018-06-22T12:59:21.587Z,51.10
2018-06-22T13:01:55.204Z,50.30
2018-06-22T13:04:28.236Z,53.10
2018-06-22T13:07:01.263Z,53.90
2018-06-22T13:09:34.324Z,52.00
2018-06-22T13:12:07.343Z,52.30
2018-06-22T13:14:40.371Z,53.10
2018-06-22T13:17:25.178Z,51.30
2018-06-22T13:19:58.174Z,48.90
2018-06-22T13:22:31.186Z,52.60
2018-06-22T13:25:04.245Z,49.90
2018-06-22T13:27:37.291Z,48.70
2018-06-22T13:30:10.322Z,52.60
2018-06-22T13:32:43.371Z,53.10
2018-06-22T13:35:16.393Z,51.70
2018-06-22T13:40:22.270Z,52.30
2018-06-22T13:42:55.284Z,51.50
2018-06-22T13:45:28.304Z,53.00
2018-06-22T13:48:01.344Z,54.10
2018-06-22T13:50:34.393Z,54.80
2018-06-22T13:53:07.563Z,55.10
2018-06-22T13:55:40.586Z,54.90
2018-06-22T13:58:13.588Z,54.00
2018-06-22T14:00:46.698Z,54.50
2018-06-22T14:03:19.802Z,55.10
2018-06-22T14:05:58.402Z,55.20
2018-06-22T14:08:31.406Z,55.80
2018-06-22T14:11:04.459Z,56.20
2018-06-22T14:13:37.568Z,54.00
2018-06-22T14:16:10.907Z,54.90
2018-06-22T14:18:44.248Z,54.80
2018-06-22T14:21:17.265Z,54.80
2018-06-22T14:23:50.303Z,54.30
2018-06-22T14:26:23.371Z,54.30
2018-06-22T14:28:56.406Z,54.20
2018-06-22T14:31:29.602Z,55.40
2018-06-22T14:34:02.646Z,56.40
2018-06-22T14:36:35.797Z,55.50
2018-06-22T14:39:09.142Z,54.60
2018-06-22T14:41:42.219Z,55.10
2018-06-22T14:44:15.329Z,56.20
2018-06-22T14:46:48.423Z,55.30
2018-06-22T14:49:21.442Z,55.40
2018-06-22T14:52:00.915Z,54.30
2018-06-22T14:54:41.555Z,55.90
2018-06-22T14:57:20.172Z,55.10
2018-06-22T15:02:37.616Z,56.20
2018-06-22T15:05:16.268Z,54.30
2018-06-22T15:07:52.597Z,51.80
2018-06-22T15:10:26.055Z,52.50
2018-06-22T15:12:59.269Z,50.60
2018-06-22T15:15:32.450Z,52.20
2018-06-22T15:18:05.797Z,53.80
2018-06-22T15:20:39.202Z,51.90
2018-06-22T15:23:12.254Z,51.00
2018-06-22T15:25:45.466Z,50.20
2018-06-22T15:28:18.642Z,51.00
2018-06-22T15:30:51.803Z,50.50
2018-06-22T15:33:30.419Z,49.90
2018-06-22T15:36:09.163Z,50.90
2018-06-22T15:38:47.519Z,49.80
2018-06-22T15:41:26.185Z,50.00
2018-06-22T15:44:04.679Z,51.60
2018-06-22T15:46:43.062Z,50.70
2018-06-22T15:49:21.727Z,49.20
2018-06-22T15:52:00.635Z,50.10
2018-06-22T15:54:40.460Z,51.40
2018-06-22T15:57:13.786Z,49.80
2018-06-22T15:59:46.893Z,50.70
2018-06-22T16:02:25.336Z,51.40
2018-06-22T16:04:58.406Z,51.40
2018-06-22T16:07:31.789Z,51.40
2018-06-22T16:10:05.027Z,50.70
2018-06-22T16:12:39.704Z,48.80
2018-06-22T16:15:19.219Z,49.90
2018-06-22T16:17:58.446Z,50.80
2018-06-22T16:20:36.993Z,49.40
2018-06-22T16:23:15.911Z,50.60
2018-06-22T16:25:54.318Z,50.70
2018-06-22T16:28:27.522Z,50.20
2018-06-22T16:31:00.615Z,50.10
2018-06-22T16:33:33.918Z,50.60
2018-06-22T16:36:06.974Z,51.00
2018-06-22T16:41:12.847Z,50.90
2018-06-22T16:43:45.891Z,51.20
2018-06-22T16:46:18.996Z,49.70
2018-06-22T16:48:52.113Z,50.70
2018-06-22T16:51:25.267Z,51.90
2018-06-22T16:53:58.453Z,51.50
2018-06-22T16:56:31.491Z,52.80
2018-06-22T16:59:05.135Z,51.20
2018-06-22T17:01:38.171Z,52.50
2018-06-22T17:04:14.940Z,53.10
2018-06-22T17:06:53.450Z,52.70
2018-06-22T17:09:31.796Z,54.00
2018-06-22T17:12:10.311Z,54.00
2018-06-22T17:14:48.822Z,54.40
2018-06-22T17:17:27.225Z,54.70
2018-06-22T17:20:00.424Z,55.40
2018-06-22T17:25:06.394Z,55.90
2018-06-22T17:27:39.456Z,56.40
2018-06-22T17:30:12.498Z,56.60
2018-06-22T17:32:45.635Z,55.90
2018-06-22T17:35:18.715Z,55.10
2018-06-22T17:37:51.760Z,55.40
2018-06-22T17:40:24.788Z,53.50
2018-06-22T17:42:58.010Z,55.90
2018-06-22T17:45:31.130Z,56.30
2018-06-22T17:48:04.180Z,56.00
2018-06-22T17:50:37.320Z,56.10
2018-06-22T17:53:10.523Z,56.50
2018-06-22T17:55:43.757Z,56.60
2018-06-22T17:58:16.815Z,56.90
2018-06-22T18:00:55.188Z,57.30
2018-06-22T18:03:33.531Z,57.50
2018-06-22T18:06:12.040Z,57.90
2018-06-22T18:08:47.593Z,57.90
2018-06-22T18:11:26.395Z,57.70
2018-06-22T18:13:59.460Z,58.20
2018-06-22T18:16:32.508Z,59.00
2018-06-22T18:19:05.754Z,58.00
2018-06-22T18:21:38.926Z,58.20
2018-06-22T18:24:12.075Z,58.10
2018-06-22T18:26:45.361Z,58.60
2018-06-22T18:29:18.475Z,58.90
2018-06-22T18:31:51.804Z,58.90
2018-06-22T18:34:24.932Z,58.10
2018-06-22T18:36:58.147Z,57.50
2018-06-22T18:39:31.381Z,57.60
2018-06-22T18:42:04.420Z,58.20
2018-06-22T18:47:10.417Z,58.30
2018-06-22T18:49:43.655Z,58.20
2018-06-22T18:52:22.157Z,58.10
2018-06-22T18:55:00.967Z,57.80
2018-06-22T18:57:39.502Z,57.60
2018-06-22T19:00:18.178Z,58.00
2018-06-22T19:02:56.598Z,58.30
2018-06-22T19:05:29.666Z,58.40
2018-06-22T19:08:02.681Z,58.30
2018-06-22T19:10:35.868Z,58.60
2018-06-22T19:13:09.024Z,59.10
2018-06-22T19:15:42.146Z,59.10
2018-06-22T19:18:15.411Z,59.50
2018-06-22T19:20:48.504Z,60.20
2018-06-22T19:23:21.579Z,59.30
2018-06-22T19:25:54.612Z,58.70
2018-06-22T19:28:27.715Z,59.30
2018-06-22T19:31:00.778Z,59.10
2018-06-22T19:33:33.935Z,59.70
2018-06-22T19:36:07.138Z,59.10
2018-06-22T19:38:40.167Z,60.00
2018-06-22T19:41:13.195Z,60.00
2018-06-22T19:43:51.635Z,60.00
2018-06-22T19:46:30.197Z,60.50
2018-06-22T19:51:48.199Z,60.90
2018-06-22T19:54:21.281Z,61.20
2018-06-22T19:56:54.435Z,59.80
2018-06-22T19:59:27.441Z,59.80
2018-06-22T20:02:00.507Z,59.70
2018-06-22T20:04:33.540Z,60.00
2018-06-22T20:07:06.640Z,60.00
2018-06-22T20:09:39.696Z,58.90
2018-06-22T20:12:12.872Z,59.10
2018-06-22T20:14:45.932Z,59.80
2018-06-22T20:17:19.091Z,59.30
2018-06-22T20:19:52.240Z,60.20
2018-06-22T20:22:25.311Z,60.40
2018-06-22T20:26:06.325Z,60.40
2018-06-22T20:28:39.473Z,60.70
2018-06-22T20:31:18.943Z,62.80
2018-06-22T20:33:51.954Z,61.70
2018-06-22T20:36:30.471Z,62.00
2018-06-22T20:39:09.072Z,62.90
2018-06-22T20:41:48.587Z,62.80
2018-06-22T20:44:27.031Z,63.10
2018-06-22T20:47:05.570Z,63.20
2018-06-22T20:49:44.187Z,64.20
2018-06-22T20:52:17.263Z,64.10
2018-06-22T20:54:50.398Z,64.10
2018-06-22T20:57:23.652Z,64.90
2018-06-22T20:59:56.657Z,64.90
2018-06-22T21:02:29.655Z,64.80
2018-06-22T21:05:02.714Z,65.40
2018-06-22T21:07:35.746Z,65.50
2018-06-22T21:10:08.823Z,65.30
2018-06-22T21:12:41.845Z,65.90
2018-06-22T21:15:14.926Z,66.70
2018-06-22T21:17:47.959Z,67.20
2018-06-22T21:20:21.111Z,67.50
2018-06-22T21:22:54.270Z,67.70
2018-06-22T21:25:27.298Z,67.50
2018-06-22T21:28:05.680Z,67.30
2018-06-22T21:30:44.100Z,67.80
2018-06-22T21:33:22.628Z,69.10
2018-06-22T21:36:01.094Z,69.40
2018-06-22T21:38:39.523Z,69.40
2018-06-22T21:41:12.638Z,69.00
2018-06-22T21:43:45.739Z,70.00
2018-06-22T21:46:18.807Z,69.90
2018-06-22T21:48:51.847Z,70.40
2018-06-22T21:51:24.902Z,70.60
2018-06-22T21:53:57.925Z,70.80
2018-06-22T21:56:30.955Z,72.30
2018-06-22T21:59:03.995Z,72.60
2018-06-22T22:01:37.132Z,72.50
2018-06-22T22:04:10.160Z,73.00
2018-06-22T22:06:43.195Z,73.60
2018-06-22T22:09:16.223Z,75.00
2018-06-22T22:11:53.353Z,73.00
2018-06-22T22:14:26.515Z,74.90
2018-06-22T22:16:59.557Z,74.40
2018-06-22T22:19:32.600Z,76.90
2018-06-22T22:22:05.667Z,76.20
2018-06-22T22:24:38.731Z,74.90
2018-06-22T22:27:11.751Z,76.40
2018-06-22T22:29:44.783Z,78.70
2018-06-22T22:32:17.838Z,80.10
2018-06-22T22:34:50.925Z,80.60
2018-06-22T22:37:23.991Z,80.40
2018-06-22T22:39:57.010Z,80.10
2018-06-22T22:42:30.051Z,80.00
2018-06-22T22:45:03.103Z,81.00
2018-06-22T22:47:36.138Z,84.50
2018-06-22T22:50:09.162Z,87.00
2018-06-22T22:52:42.202Z,87.20
2018-06-22T22:55:15.226Z,86.80
2018-06-22T22:57:48.283Z,86.70
2018-06-22T23:00:21.298Z,86.60
2018-06-22T23:02:54.376Z,88.20
2018-06-22T23:05:27.463Z,89.00
2018-06-22T23:08:00.479Z,86.40
2018-06-22T23:10:33.496Z,88.70
2018-06-22T23:13:06.510Z,88.70
2018-06-22T23:15:39.534Z,88.90
2018-06-22T23:18:12.624Z,89.40
2018-06-22T23:20:45.652Z,89.20
2018-06-22T23:23:33.632Z,89.40
2018-06-22T23:26:06.898Z,88.80
2018-06-22T23:28:39.897Z,90.30
2018-06-22T23:31:12.923Z,90.50
2018-06-22T23:33:45.950Z,91.50
2018-06-22T23:36:19.099Z,92.00
2018-06-22T23:38:52.118Z,92.10
2018-06-22T23:41:25.182Z,91.00
2018-06-22T23:43:58.207Z,92.30
2018-06-22T23:46:31.211Z,92.00
2018-06-22T23:49:04.308Z,92.80
2018-06-22T23:54:10.896Z,93.20
2018-06-22T23:56:43.962Z,92.80
2018-06-22T23:59:17.003Z,92.60
